createdAt,value
2019-05-03T00:02:41.603Z,2.37
2019-05-03T00:05:27.088Z,2.30
2019-05-03T00:07:56.914Z,2.33
2019-05-03T00:10:26.106Z,2.42
2019-05-03T00:12:55.197Z,2.55
2019-05-03T00:15:26.236Z,2.33
2019-05-03T00:17:55.320Z,2.58
2019-05-03T00:20:24.431Z,2.20
2019-05-03T00:22:53.508Z,2.37
2019-05-03T00:25:22.626Z,2.22
2019-05-03T00:27:52.770Z,2.40
2019-05-03T00:30:22.516Z,2.35
2019-05-03T00:32:52.120Z,1.90
2019-05-03T00:35:35.171Z,2.40
2019-05-03T00:38:05.811Z,2.30
2019-05-03T00:40:34.910Z,2.30
2019-05-03T00:43:04.092Z,2.52
2019-05-03T00:45:33.292Z,2.47
2019-05-03T00:48:02.191Z,2.30
2019-05-03T00:50:32.055Z,2.35
2019-05-03T00:53:02.370Z,2.45
2019-05-03T00:55:32.798Z,2.50
2019-05-03T00:58:02.474Z,2.50
2019-05-03T01:00:32.292Z,2.47
2019-05-03T01:03:02.139Z,2.52
2019-05-03T01:05:33.101Z,2.40
2019-05-03T01:08:02.091Z,2.58
2019-05-03T01:10:33.060Z,2.58
2019-05-03T01:13:02.370Z,2.87
2019-05-03T01:15:33.074Z,2.27
2019-05-03T01:18:03.715Z,2.47
2019-05-03T01:20:33.939Z,2.70
2019-05-03T01:23:02.826Z,2.52
2019-05-03T01:25:35.059Z,2.62
2019-05-03T01:28:02.553Z,2.42
2019-05-03T01:30:32.046Z,2.60
2019-05-03T01:33:02.850Z,2.60
2019-05-03T01:35:32.263Z,2.60
2019-05-03T01:38:02.567Z,2.55
2019-05-03T01:40:32.649Z,2.47
2019-05-03T01:43:02.211Z,2.80
2019-05-03T01:45:31.840Z,2.87
2019-05-03T01:48:03.003Z,2.42
2019-05-03T01:50:52.198Z,2.60
2019-05-03T01:53:23.001Z,2.50
2019-05-03T01:55:52.452Z,2.77
2019-05-03T01:58:24.833Z,2.50
2019-05-03T02:01:13.642Z,2.45
2019-05-03T02:04:02.861Z,2.85
2019-05-03T02:06:31.864Z,2.50
2019-05-03T02:09:01.607Z,2.70
2019-05-03T02:11:32.510Z,2.40
2019-05-03T02:14:01.695Z,2.37
2019-05-03T02:16:32.500Z,2.30
2019-05-03T02:19:02.470Z,2.40
2019-05-03T02:21:32.214Z,2.20
2019-05-03T02:24:02.612Z,2.62
2019-05-03T02:26:31.923Z,2.50
2019-05-03T02:29:01.851Z,2.10
2019-05-03T02:31:32.809Z,2.30
2019-05-03T02:34:03.588Z,2.30
2019-05-03T02:36:33.780Z,2.25
2019-05-03T02:39:03.259Z,2.77
2019-05-03T02:41:32.432Z,3.15
2019-05-03T02:44:01.746Z,2.30
2019-05-03T02:46:45.372Z,2.47
2019-05-03T02:49:28.391Z,2.20
2019-05-03T02:51:57.389Z,2.40
2019-05-03T02:54:27.142Z,2.10
2019-05-03T02:56:56.406Z,2.35
2019-05-03T02:59:26.427Z,2.30
2019-05-03T03:01:56.138Z,2.12
2019-05-03T03:04:26.330Z,2.10
2019-05-03T03:06:58.277Z,2.67
2019-05-03T03:09:28.668Z,2.55
2019-05-03T03:11:59.484Z,2.30
2019-05-03T03:14:31.038Z,2.22
2019-05-03T03:17:02.900Z,2.33
2019-05-03T03:19:35.152Z,2.00
2019-05-03T03:22:06.196Z,2.50
2019-05-03T03:24:38.061Z,2.40
2019-05-03T03:27:08.691Z,2.40
2019-05-03T03:29:40.552Z,2.35
2019-05-03T03:32:28.090Z,2.70
2019-05-03T03:35:10.548Z,2.15
2019-05-03T03:37:35.247Z,2.52
2019-05-03T03:40:06.202Z,2.52
2019-05-03T03:42:36.181Z,2.60
2019-05-03T03:45:06.295Z,3.00
2019-05-03T03:47:38.422Z,2.30
2019-05-03T03:50:07.833Z,2.42
2019-05-03T03:52:38.355Z,2.58
2019-05-03T03:55:08.143Z,2.70
2019-05-03T03:57:37.465Z,2.85
2019-05-03T04:00:07.883Z,2.92
2019-05-03T04:02:37.848Z,2.50
2019-05-03T04:05:08.483Z,2.10
2019-05-03T04:07:37.639Z,2.45
2019-05-03T04:10:09.518Z,1.95
2019-05-03T04:12:40.741Z,2.65
2019-05-03T04:15:11.582Z,1.80
2019-05-03T04:17:48.469Z,2.87
2019-05-03T04:20:19.104Z,2.72
2019-05-03T04:22:48.184Z,2.42
2019-05-03T04:25:17.060Z,2.50
2019-05-03T04:27:46.171Z,2.33
2019-05-03T04:30:16.432Z,2.75
2019-05-03T04:32:45.992Z,2.77
2019-05-03T04:35:16.375Z,2.60
2019-05-03T04:37:45.725Z,2.62
2019-05-03T04:40:15.591Z,2.35
2019-05-03T04:42:46.343Z,2.25
2019-05-03T04:45:16.555Z,2.58
2019-05-03T04:47:46.622Z,2.30
2019-05-03T04:50:16.488Z,2.37
2019-05-03T04:52:46.414Z,2.15
2019-05-03T04:55:16.179Z,2.40
2019-05-03T04:57:49.764Z,2.35
2019-05-03T05:00:16.602Z,2.30
2019-05-03T05:02:46.136Z,2.60
2019-05-03T05:05:15.516Z,2.00
2019-05-03T05:07:45.624Z,2.10
2019-05-03T05:10:15.494Z,2.52
2019-05-03T05:12:45.851Z,2.30
2019-05-03T05:15:15.945Z,2.10
2019-05-03T05:17:49.164Z,2.30
2019-05-03T05:20:24.692Z,1.92
2019-05-03T05:22:54.394Z,2.37
2019-05-03T05:25:31.196Z,2.20
2019-05-03T05:28:01.726Z,2.10
2019-05-03T05:30:31.424Z,2.72
2019-05-03T05:33:00.522Z,2.83
2019-05-03T05:35:29.520Z,1.90
2019-05-03T05:37:58.620Z,2.10
2019-05-03T05:40:27.611Z,2.30
2019-05-03T05:42:56.617Z,2.27
2019-05-03T05:45:25.600Z,2.20
2019-05-03T05:47:56.124Z,2.10
2019-05-03T05:50:27.052Z,2.20
2019-05-03T05:52:55.942Z,2.40
2019-05-03T05:55:34.343Z,1.98
2019-05-03T05:58:07.510Z,2.15
2019-05-03T06:00:39.726Z,2.20
2019-05-03T06:03:08.725Z,2.80
2019-05-03T06:05:37.715Z,2.30
2019-05-03T06:08:08.555Z,2.50
2019-05-03T06:10:39.185Z,2.08
2019-05-03T06:13:12.564Z,2.52
2019-05-03T06:15:59.783Z,2.12
2019-05-03T06:18:30.525Z,1.95
2019-05-03T06:21:00.947Z,2.02
2019-05-03T06:23:31.588Z,2.20
2019-05-03T06:26:00.991Z,1.82
2019-05-03T06:28:31.508Z,2.02
2019-05-03T06:31:19.309Z,2.17
2019-05-03T06:33:47.728Z,2.17
2019-05-03T06:36:16.839Z,2.30
2019-05-03T06:38:45.829Z,1.65
2019-05-03T06:41:16.321Z,1.72
2019-05-03T06:43:48.746Z,2.00
2019-05-03T06:46:18.222Z,1.60
2019-05-03T06:48:46.592Z,1.80
2019-05-03T06:51:19.882Z,2.10
2019-05-03T06:53:50.287Z,1.90
2019-05-03T06:56:19.376Z,2.00
2019-05-03T06:58:47.819Z,2.27
2019-05-03T07:01:21.289Z,2.20
2019-05-03T07:03:57.978Z,1.92
2019-05-03T07:06:39.410Z,2.27
2019-05-03T07:09:05.217Z,2.00
2019-05-03T07:11:34.830Z,2.10
2019-05-03T07:14:05.293Z,2.42
2019-05-03T07:16:35.296Z,2.42
2019-05-03T07:19:04.514Z,2.20
2019-05-03T07:21:35.405Z,1.92
2019-05-03T07:24:05.424Z,2.20
2019-05-03T07:26:34.595Z,1.65
2019-05-03T07:29:04.957Z,2.10
2019-05-03T07:31:35.356Z,1.70
2019-05-03T07:34:05.205Z,1.82
2019-05-03T07:36:35.566Z,1.55
2019-05-03T07:39:07.252Z,1.92
2019-05-03T07:41:36.315Z,1.90
2019-05-03T07:44:05.515Z,1.85
2019-05-03T07:46:34.980Z,2.00
2019-05-03T07:49:05.073Z,1.82
2019-05-03T07:51:34.891Z,2.05
2019-05-03T07:54:04.677Z,1.50
2019-05-03T07:56:38.357Z,1.87
2019-05-03T07:59:08.393Z,2.10
2019-05-03T08:01:38.894Z,1.67
2019-05-03T08:04:07.875Z,1.60
2019-05-03T08:06:37.112Z,1.98
2019-05-03T08:09:07.731Z,1.77
2019-05-03T08:11:36.854Z,1.70
2019-05-03T08:14:07.056Z,1.75
2019-05-03T08:16:36.043Z,1.72
2019-05-03T08:19:05.563Z,1.80
2019-05-03T08:21:37.689Z,2.08
2019-05-03T08:24:05.226Z,1.65
2019-05-03T08:26:35.001Z,1.60
2019-05-03T08:29:15.638Z,1.42
2019-05-03T08:31:36.762Z,1.85
2019-05-03T08:34:10.699Z,2.12
2019-05-03T08:36:59.435Z,2.05
2019-05-03T08:39:28.519Z,1.85
2019-05-03T08:41:59.032Z,2.05
2019-05-03T08:44:28.039Z,1.90
2019-05-03T08:46:57.841Z,2.42
2019-05-03T08:49:28.052Z,2.33
2019-05-03T08:51:56.855Z,2.20
2019-05-03T08:54:25.855Z,1.90
2019-05-03T08:56:56.676Z,2.10
2019-05-03T08:59:29.850Z,1.87
2019-05-03T09:01:56.335Z,1.87
2019-05-03T09:04:36.116Z,2.10
2019-05-03T09:06:55.935Z,2.10
2019-05-03T09:09:38.955Z,2.17
2019-05-03T09:12:07.856Z,2.00
2019-05-03T09:14:41.581Z,3.15
2019-05-03T09:17:08.414Z,2.40
2019-05-03T09:19:37.999Z,1.82
2019-05-03T09:22:07.115Z,2.27
2019-05-03T09:24:36.339Z,2.10
2019-05-03T09:27:05.645Z,1.72
2019-05-03T09:29:43.333Z,1.80
2019-05-03T09:32:05.590Z,2.20
2019-05-03T09:34:35.216Z,2.12
2019-05-03T09:37:04.780Z,2.00
2019-05-03T09:39:35.486Z,1.98
2019-05-03T09:42:04.823Z,1.92
2019-05-03T09:44:34.999Z,1.98
2019-05-03T09:47:05.649Z,2.65
2019-05-03T09:49:35.052Z,2.12
2019-05-03T09:52:08.104Z,1.70
2019-05-03T09:54:39.693Z,2.40
2019-05-03T09:57:08.672Z,1.70
2019-05-03T09:59:37.555Z,1.98
2019-05-03T10:02:06.689Z,1.82
2019-05-03T10:04:36.806Z,1.87
2019-05-03T10:07:06.206Z,1.70
2019-05-03T10:09:35.441Z,2.02
2019-05-03T10:12:06.317Z,1.85
2019-05-03T10:14:35.190Z,2.00
2019-05-03T10:17:18.219Z,2.10
2019-05-03T10:19:47.097Z,1.50
2019-05-03T10:22:17.943Z,1.85
2019-05-03T10:24:47.359Z,1.60
2019-05-03T10:27:16.463Z,2.10
2019-05-03T10:29:45.509Z,1.90
2019-05-03T10:32:18.657Z,2.00
2019-05-03T10:34:57.979Z,2.00
2019-05-03T10:37:31.100Z,1.82
2019-05-03T10:40:04.959Z,1.98
2019-05-03T10:42:32.618Z,1.50
2019-05-03T10:45:01.645Z,2.20
2019-05-03T10:47:30.625Z,2.05
2019-05-03T10:49:59.819Z,1.90
2019-05-03T10:52:34.919Z,2.17
2019-05-03T10:55:05.371Z,1.90
2019-05-03T10:57:36.020Z,2.08
2019-05-03T11:00:38.263Z,2.05
2019-05-03T11:02:44.929Z,2.20
2019-05-03T11:05:14.643Z,2.40
2019-05-03T11:07:45.127Z,2.22
2019-05-03T11:10:14.700Z,2.10
2019-05-03T11:12:43.811Z,1.80
2019-05-03T11:15:15.002Z,1.90
2019-05-03T11:17:45.514Z,1.80
2019-05-03T11:20:28.237Z,1.80
2019-05-03T11:22:48.581Z,1.90
2019-05-03T11:25:17.679Z,2.20
2019-05-03T11:27:51.079Z,2.02
2019-05-03T11:30:20.066Z,1.70
2019-05-03T11:32:55.476Z,2.17
2019-05-03T11:35:44.698Z,1.65
2019-05-03T11:38:18.304Z,1.60
2019-05-03T11:40:47.489Z,1.55
2019-05-03T11:43:18.087Z,1.50
2019-05-03T11:45:47.074Z,1.70
2019-05-03T11:48:16.064Z,1.80
2019-05-03T11:50:45.373Z,1.62
2019-05-03T11:53:14.789Z,1.80
2019-05-03T11:55:46.290Z,1.60
2019-05-03T11:58:21.986Z,1.37
2019-05-03T12:01:10.387Z,1.70
2019-05-03T12:03:30.506Z,1.70
2019-05-03T12:06:01.047Z,1.70
2019-05-03T12:08:30.142Z,2.77
2019-05-03T12:11:01.625Z,1.85
2019-05-03T12:13:30.681Z,1.75
2019-05-03T12:16:00.483Z,1.50
2019-05-03T12:18:29.737Z,1.60
2019-05-03T12:21:00.002Z,1.70
2019-05-03T12:23:31.593Z,1.20
2019-05-03T12:26:00.741Z,1.90
2019-05-03T12:28:30.282Z,1.82
2019-05-03T12:30:59.608Z,2.00
2019-05-03T12:33:28.683Z,2.12
2019-05-03T12:35:58.164Z,1.90
2019-05-03T12:38:27.056Z,1.70
2019-05-03T12:40:56.025Z,2.27
2019-05-03T12:43:25.687Z,1.77
2019-05-03T12:45:54.882Z,1.80
2019-05-03T12:48:24.649Z,1.42
2019-05-03T12:50:54.344Z,1.60
2019-05-03T12:53:24.662Z,1.52
2019-05-03T12:55:53.924Z,1.50
2019-05-03T12:58:25.361Z,1.70
2019-05-03T13:00:55.993Z,2.12
2019-05-03T13:03:30.188Z,1.72
2019-05-03T13:05:59.619Z,1.80
2019-05-03T13:08:39.780Z,1.40
2019-05-03T13:11:08.851Z,1.80
2019-05-03T13:13:37.948Z,1.77
2019-05-03T13:16:07.623Z,1.40
2019-05-03T13:18:36.785Z,1.90
2019-05-03T13:21:06.357Z,1.55
2019-05-03T13:23:35.902Z,1.62
2019-05-03T13:26:05.837Z,1.77
2019-05-03T13:28:35.683Z,1.40
2019-05-03T13:31:05.890Z,1.90
2019-05-03T13:33:35.290Z,1.62
2019-05-03T13:36:04.946Z,1.70
2019-05-03T13:38:35.047Z,2.30
2019-05-03T13:41:06.526Z,1.82
2019-05-03T13:43:35.188Z,2.00
2019-05-03T13:46:05.104Z,1.85
2019-05-03T13:48:42.625Z,1.67
2019-05-03T13:51:05.454Z,2.42
2019-05-03T13:53:35.338Z,1.67
2019-05-03T13:56:04.938Z,1.60
2019-05-03T13:58:35.827Z,1.70
2019-05-03T14:01:05.733Z,1.80
2019-05-03T14:03:35.530Z,1.72
2019-05-03T14:06:08.708Z,2.02
2019-05-03T14:08:35.441Z,1.62
2019-05-03T14:11:05.116Z,2.20
2019-05-03T14:13:35.348Z,1.90
2019-05-03T14:16:05.872Z,2.00
2019-05-03T14:18:35.493Z,2.10
2019-05-03T14:21:06.346Z,1.87
2019-05-03T14:23:36.994Z,1.60
2019-05-03T14:26:05.875Z,1.95
2019-05-03T14:28:34.979Z,1.67
2019-05-03T14:31:05.231Z,1.35
2019-05-03T14:33:35.437Z,1.70
2019-05-03T14:36:05.328Z,1.60
2019-05-03T14:38:34.640Z,1.70
2019-05-03T14:41:05.486Z,2.12
2019-05-03T14:43:35.531Z,1.80
2019-05-03T14:46:05.617Z,1.90
2019-05-03T14:48:35.096Z,1.60
2019-05-03T14:51:05.451Z,3.00
2019-05-03T14:53:34.854Z,1.55
2019-05-03T14:56:22.162Z,1.30
2019-05-03T14:58:56.000Z,1.70
2019-05-03T15:01:34.625Z,1.42
2019-05-03T15:04:05.723Z,2.35
2019-05-03T15:06:35.441Z,1.77
2019-05-03T15:09:06.085Z,1.85
2019-05-03T15:11:34.966Z,1.98
2019-05-03T15:14:05.623Z,2.58
2019-05-03T15:16:34.903Z,2.30
2019-05-03T15:19:05.428Z,2.22
2019-05-03T15:21:34.843Z,3.10
2019-05-03T15:24:05.396Z,2.20
2019-05-03T15:26:35.629Z,1.60
2019-05-03T15:29:05.143Z,1.92
2019-05-03T15:31:35.354Z,2.02
2019-05-03T15:34:06.543Z,2.22
2019-05-03T15:36:35.530Z,1.90
2019-05-03T15:39:06.490Z,2.00
2019-05-03T15:41:36.575Z,2.10
2019-05-03T15:44:07.828Z,2.00
2019-05-03T15:46:45.054Z,2.30
2019-05-03T15:49:15.244Z,2.33
2019-05-03T15:51:44.651Z,2.00
2019-05-03T15:54:15.276Z,2.05
2019-05-03T15:56:44.880Z,1.98
2019-05-03T15:59:14.955Z,1.87
2019-05-03T16:01:43.991Z,2.10
2019-05-03T16:04:14.358Z,2.10
2019-05-03T16:06:44.793Z,2.10
2019-05-03T16:09:15.226Z,1.92
2019-05-03T16:11:45.058Z,2.10
2019-05-03T16:14:15.288Z,2.02
2019-05-03T16:16:45.143Z,1.80
2019-05-03T16:19:14.748Z,2.15
2019-05-03T16:21:45.293Z,1.95
2019-05-03T16:24:15.461Z,2.08
2019-05-03T16:26:48.988Z,1.47
2019-05-03T16:29:17.867Z,1.90
2019-05-03T16:31:46.877Z,2.20
2019-05-03T16:34:15.987Z,1.82
2019-05-03T16:36:45.542Z,2.05
2019-05-03T16:39:15.391Z,1.80
2019-05-03T16:41:44.739Z,2.10
2019-05-03T16:44:14.595Z,2.10
2019-05-03T16:46:44.907Z,1.80
2019-05-03T16:49:15.702Z,2.02
2019-05-03T16:51:44.643Z,2.10
2019-05-03T16:54:14.615Z,2.00
2019-05-03T16:56:44.485Z,2.37
2019-05-03T16:59:14.775Z,1.80
2019-05-03T17:01:45.230Z,2.08
2019-05-03T17:04:27.836Z,1.98
2019-05-03T17:06:58.351Z,2.30
2019-05-03T17:09:38.127Z,2.08
2019-05-03T17:12:08.637Z,1.95
2019-05-03T17:14:37.754Z,2.83
2019-05-03T17:17:07.278Z,2.08
2019-05-03T17:19:36.442Z,2.02
2019-05-03T17:22:05.638Z,2.20
2019-05-03T17:24:35.325Z,2.30
2019-05-03T17:27:04.869Z,2.00
2019-05-03T17:29:35.093Z,2.40
2019-05-03T17:32:04.887Z,2.05
2019-05-03T17:34:34.686Z,2.17
2019-05-03T17:37:05.032Z,2.00
2019-05-03T17:39:42.403Z,2.62
2019-05-03T17:42:25.316Z,2.30
2019-05-03T17:44:54.668Z,1.80
2019-05-03T17:47:25.502Z,2.30
2019-05-03T17:49:54.689Z,2.62
2019-05-03T17:52:42.202Z,2.10
2019-05-03T17:55:24.794Z,2.10
2019-05-03T17:57:58.294Z,2.10
2019-05-03T18:00:45.627Z,1.90
2019-05-03T18:03:15.733Z,2.10
2019-05-03T18:05:46.382Z,1.90
2019-05-03T18:08:17.118Z,2.30
2019-05-03T18:10:47.495Z,2.80
2019-05-03T18:13:16.538Z,2.10
2019-05-03T18:15:45.527Z,2.08
2019-05-03T18:18:15.768Z,1.87
2019-05-03T18:20:45.005Z,2.25
2019-05-03T18:23:15.391Z,2.62
2019-05-03T18:25:44.656Z,2.20
2019-05-03T18:28:14.827Z,2.30
2019-05-03T18:30:45.474Z,1.80
2019-05-03T18:33:15.341Z,1.60
2019-05-03T18:35:45.511Z,2.15
2019-05-03T18:38:14.908Z,1.50
2019-05-03T18:40:44.851Z,1.47
2019-05-03T18:43:15.391Z,1.95
2019-05-03T18:45:55.412Z,1.30
2019-05-03T18:48:29.681Z,2.37
2019-05-03T18:50:58.977Z,3.12
2019-05-03T18:53:28.069Z,2.50
2019-05-03T18:55:57.172Z,2.35
2019-05-03T18:58:26.244Z,2.37
2019-05-03T19:00:55.240Z,3.60
2019-05-03T19:03:25.158Z,3.50
2019-05-03T19:06:00.614Z,3.72
2019-05-03T19:08:44.734Z,3.98
2019-05-03T19:11:15.734Z,3.52
2019-05-03T19:13:46.316Z,3.30
2019-05-03T19:16:20.032Z,3.47
2019-05-03T19:18:49.260Z,3.30
2019-05-03T19:21:18.109Z,3.02
2019-05-03T19:23:47.113Z,3.17
2019-05-03T19:26:16.257Z,2.83
2019-05-03T19:28:45.321Z,2.67
2019-05-03T19:31:14.831Z,2.80
2019-05-03T19:33:45.525Z,3.17
2019-05-03T19:36:14.224Z,2.52
2019-05-03T19:38:43.216Z,2.40
2019-05-03T19:41:12.316Z,2.62
2019-05-03T19:43:41.330Z,2.70
2019-05-03T19:46:10.294Z,2.80
2019-05-03T19:48:39.192Z,2.77
2019-05-03T19:51:08.283Z,2.30
2019-05-03T19:53:51.095Z,2.77
2019-05-03T19:56:19.980Z,3.00
2019-05-03T19:58:48.874Z,3.10
2019-05-03T20:01:22.789Z,2.90
2019-05-03T20:04:11.559Z,3.08
2019-05-03T20:06:51.048Z,1.67
2019-05-03T20:09:27.050Z,1.80
2019-05-03T20:11:56.045Z,1.42
2019-05-03T20:14:25.989Z,1.70
2019-05-03T20:16:55.061Z,1.40
2019-05-03T20:19:25.764Z,1.40
2019-05-03T20:21:56.648Z,1.45
2019-05-03T20:24:26.124Z,1.50
2019-05-03T20:26:55.124Z,1.40
2019-05-03T20:29:25.105Z,1.60
2019-05-03T20:31:55.224Z,1.82
2019-05-03T20:34:24.897Z,1.80
2019-05-03T20:36:54.859Z,1.80
2019-05-03T20:39:25.480Z,1.80
2019-05-03T20:41:55.631Z,1.70
2019-05-03T20:44:35.431Z,1.87
2019-05-03T20:47:06.286Z,2.00
2019-05-03T20:49:35.963Z,1.80
2019-05-03T20:52:05.028Z,1.72
2019-05-03T20:54:35.019Z,1.90
2019-05-03T20:57:05.281Z,1.95
2019-05-03T20:59:44.871Z,2.00
2019-05-03T21:02:06.043Z,1.72
2019-05-03T21:04:35.468Z,1.52
2019-05-03T21:07:04.733Z,2.08
2019-05-03T21:09:34.696Z,1.82
2019-05-03T21:12:04.492Z,1.75
2019-05-03T21:14:35.042Z,2.10
2019-05-03T21:17:08.886Z,1.60
2019-05-03T21:19:39.289Z,2.08
2019-05-03T21:22:09.919Z,1.92
2019-05-03T21:24:45.337Z,1.80
2019-05-03T21:27:14.264Z,2.30
2019-05-03T21:29:54.799Z,2.08
2019-05-03T21:32:25.086Z,1.80
2019-05-03T21:34:55.635Z,2.30
2019-05-03T21:37:24.616Z,1.80
2019-05-03T21:39:54.761Z,1.30
2019-05-03T21:42:24.083Z,1.60
2019-05-03T21:44:55.358Z,1.70
2019-05-03T21:47:25.447Z,1.40
2019-05-03T21:49:55.675Z,1.77
2019-05-03T21:52:24.924Z,1.82
2019-05-03T21:54:54.795Z,1.80
2019-05-03T21:57:25.302Z,1.47
2019-05-03T21:59:55.011Z,1.70
2019-05-03T22:02:24.706Z,1.75
2019-05-03T22:04:53.739Z,1.37
2019-05-03T22:07:22.732Z,1.67
2019-05-03T22:09:51.719Z,1.82
2019-05-03T22:12:20.719Z,1.60
2019-05-03T22:15:06.701Z,1.92
2019-05-03T22:17:53.920Z,1.92
2019-05-03T22:20:27.529Z,1.57
2019-05-03T22:23:00.397Z,1.67
2019-05-03T22:25:31.053Z,1.60
2019-05-03T22:27:59.801Z,1.70
2019-05-03T22:30:28.811Z,1.80
2019-05-03T22:32:57.725Z,1.70
2019-05-03T22:35:26.713Z,1.98
2019-05-03T22:37:55.580Z,1.92
2019-05-03T22:40:25.107Z,1.60
2019-05-03T22:42:54.600Z,1.80
2019-05-03T22:45:23.487Z,1.50
2019-05-03T22:47:52.274Z,1.62
2019-05-03T22:50:21.264Z,1.75
2019-05-03T22:52:50.054Z,2.12
2019-05-03T22:55:18.947Z,1.90
2019-05-03T22:57:48.049Z,1.80
2019-05-03T23:00:17.377Z,2.17
2019-05-03T23:02:46.449Z,1.90
2019-05-03T23:05:15.549Z,1.77
2019-05-03T23:07:46.880Z,1.82
2019-05-03T23:10:17.261Z,2.12
2019-05-03T23:12:46.272Z,1.90
2019-05-03T23:15:15.597Z,1.90
2019-05-03T23:17:45.162Z,2.02
2019-05-03T23:20:25.481Z,1.80
2019-05-03T23:22:54.825Z,2.00
2019-05-03T23:25:25.035Z,1.90
2019-05-03T23:27:55.147Z,1.92
2019-05-03T23:30:24.782Z,1.80
2019-05-03T23:32:54.684Z,1.82
2019-05-03T23:35:24.632Z,1.90
2019-05-03T23:37:54.353Z,1.80
2019-05-03T23:40:25.287Z,2.10
2019-05-03T23:42:54.467Z,2.00
2019-05-03T23:45:25.419Z,2.10
2019-05-03T23:47:54.339Z,2.10
2019-05-03T23:50:24.902Z,1.90
2019-05-03T23:52:54.479Z,2.00
2019-05-03T23:55:25.301Z,2.10
2019-05-03T23:57:55.405Z,2.27
